sensor_id;sensor_type;location;lat;lon;timestamp;temperature;humidity
55135;DHT22;41031;44.750;11.308;2023-05-19T00:02:14;16.40;92.80
55135;DHT22;41031;44.750;11.308;2023-05-19T00:04:41;16.40;92.80
55135;DHT22;41031;44.750;11.308;2023-05-19T00:07:10;16.40;92.90
55135;DHT22;41031;44.750;11.308;2023-05-19T00:09:39;16.40;92.90
55135;DHT22;41031;44.750;11.308;2023-05-19T00:12:07;16.40;93.00
55135;DHT22;41031;44.750;11.308;2023-05-19T00:14:36;16.40;92.90
55135;DHT22;41031;44.750;11.308;2023-05-19T00:17:03;16.40;92.90
55135;DHT22;41031;44.750;11.308;2023-05-19T00:19:30;16.40;93.00
55135;DHT22;41031;44.750;11.308;2023-05-19T00:21:58;16.40;93.10
55135;DHT22;41031;44.750;11.308;2023-05-19T00:24:25;16.40;93.20
55135;DHT22;41031;44.750;11.308;2023-05-19T00:26:54;16.40;93.30
55135;DHT22;41031;44.750;11.308;2023-05-19T00:29:23;16.30;93.40
55135;DHT22;41031;44.750;11.308;2023-05-19T00:31:51;16.40;93.50
55135;DHT22;41031;44.750;11.308;2023-05-19T00:34:18;16.30;93.60
55135;DHT22;41031;44.750;11.308;2023-05-19T00:36:45;16.30;93.70
55135;DHT22;41031;44.750;11.308;2023-05-19T00:39:15;16.30;93.60
55135;DHT22;41031;44.750;11.308;2023-05-19T00:41:42;16.30;93.60
55135;DHT22;41031;44.750;11.308;2023-05-19T00:44:10;16.30;93.60
55135;DHT22;41031;44.750;11.308;2023-05-19T00:46:37;16.30;93.70
55135;DHT22;41031;44.750;11.308;2023-05-19T00:49:04;16.30;93.80
55135;DHT22;41031;44.750;11.308;2023-05-19T00:51:31;16.30;93.90
55135;DHT22;41031;44.750;11.308;2023-05-19T00:53:58;16.30;93.90
55135;DHT22;41031;44.750;11.308;2023-05-19T00:56:25;16.30;93.90
55135;DHT22;41031;44.750;11.308;2023-05-19T00:58:56;16.30;93.90
55135;DHT22;41031;44.750;11.308;2023-05-19T01:01:24;16.30;93.90
55135;DHT22;41031;44.750;11.308;2023-05-19T01:03:52;16.20;93.90
55135;DHT22;41031;44.750;11.308;2023-05-19T01:06:22;16.30;94.00
55135;DHT22;41031;44.750;11.308;2023-05-19T01:08:53;16.30;94.00
55135;DHT22;41031;44.750;11.308;2023-05-19T01:11:22;16.20;94.00
55135;DHT22;41031;44.750;11.308;2023-05-19T01:13:50;16.20;94.10
55135;DHT22;41031;44.750;11.308;2023-05-19T01:32:46;16.20;94.10
55135;DHT22;41031;44.750;11.308;2023-05-19T01:35:15;16.20;94.10
55135;DHT22;41031;44.750;11.308;2023-05-19T01:37:43;16.20;94.00
55135;DHT22;41031;44.750;11.308;2023-05-19T01:40:14;16.20;94.00
55135;DHT22;41031;44.750;11.308;2023-05-19T01:42:41;16.30;94.00
55135;DHT22;41031;44.750;11.308;2023-05-19T01:45:11;16.30;94.00
55135;DHT22;41031;44.750;11.308;2023-05-19T01:47:42;16.20;94.00
55135;DHT22;41031;44.750;11.308;2023-05-19T01:50:09;16.30;94.10
55135;DHT22;41031;44.750;11.308;2023-05-19T01:52:39;16.30;94.10
55135;DHT22;41031;44.750;11.308;2023-05-19T01:55:07;16.30;94.20
55135;DHT22;41031;44.750;11.308;2023-05-19T02:00:34;16.20;94.30
55135;DHT22;41031;44.750;11.308;2023-05-19T02:12:23;16.20;94.40
55135;DHT22;41031;44.750;11.308;2023-05-19T02:17:59;16.10;94.40
55135;DHT22;41031;44.750;11.308;2023-05-19T02:20:30;16.10;94.40
55135;DHT22;41031;44.750;11.308;2023-05-19T02:22:58;16.00;94.40
55135;DHT22;41031;44.750;11.308;2023-05-19T02:25:27;16.10;94.40
55135;DHT22;41031;44.750;11.308;2023-05-19T02:27:54;16.00;94.50
55135;DHT22;41031;44.750;11.308;2023-05-19T02:30:21;16.00;94.50
55135;DHT22;41031;44.750;11.308;2023-05-19T02:32:48;16.00;94.60
55135;DHT22;41031;44.750;11.308;2023-05-19T02:35:15;15.90;94.60
55135;DHT22;41031;44.750;11.308;2023-05-19T02:37:45;15.90;94.60
55135;DHT22;41031;44.750;11.308;2023-05-19T02:40:13;15.90;94.60
55135;DHT22;41031;44.750;11.308;2023-05-19T02:42:43;16.00;94.60
55135;DHT22;41031;44.750;11.308;2023-05-19T02:45:10;15.90;94.60
55135;DHT22;41031;44.750;11.308;2023-05-19T02:47:39;15.90;94.60
55135;DHT22;41031;44.750;11.308;2023-05-19T02:50:07;16.00;94.60
55135;DHT22;41031;44.750;11.308;2023-05-19T02:52:34;16.00;94.60
55135;DHT22;41031;44.750;11.308;2023-05-19T02:55:01;16.00;94.50
55135;DHT22;41031;44.750;11.308;2023-05-19T02:57:30;16.00;94.50
55135;DHT22;41031;44.750;11.308;2023-05-19T02:59:57;16.00;94.60
55135;DHT22;41031;44.750;11.308;2023-05-19T03:02:24;15.90;94.50
55135;DHT22;41031;44.750;11.308;2023-05-19T03:04:54;15.90;94.50
55135;DHT22;41031;44.750;11.308;2023-05-19T03:07:21;16.00;94.50
55135;DHT22;41031;44.750;11.308;2023-05-19T03:09:51;16.00;94.50
55135;DHT22;41031;44.750;11.308;2023-05-19T03:12:20;16.00;94.60
55135;DHT22;41031;44.750;11.308;2023-05-19T03:14:50;16.00;94.60
55135;DHT22;41031;44.750;11.308;2023-05-19T03:17:19;16.00;94.60
55135;DHT22;41031;44.750;11.308;2023-05-19T03:19:49;16.00;94.70
55135;DHT22;41031;44.750;11.308;2023-05-19T03:22:19;16.00;94.80
55135;DHT22;41031;44.750;11.308;2023-05-19T03:24:49;16.00;94.90
55135;DHT22;41031;44.750;11.308;2023-05-19T03:27:19;16.00;94.90
55135;DHT22;41031;44.750;11.308;2023-05-19T03:29:48;16.00;95.00
55135;DHT22;41031;44.750;11.308;2023-05-19T03:32:16;16.00;95.00
55135;DHT22;41031;44.750;11.308;2023-05-19T03:34:44;16.00;95.00
55135;DHT22;41031;44.750;11.308;2023-05-19T03:37:11;16.00;94.90
55135;DHT22;41031;44.750;11.308;2023-05-19T03:39:39;16.00;94.90
55135;DHT22;41031;44.750;11.308;2023-05-19T03:42:06;16.00;94.90
55135;DHT22;41031;44.750;11.308;2023-05-19T03:44:34;16.00;94.80
55135;DHT22;41031;44.750;11.308;2023-05-19T03:47:01;16.00;94.80
55135;DHT22;41031;44.750;11.308;2023-05-19T03:49:55;16.00;94.80
55135;DHT22;41031;44.750;11.308;2023-05-19T03:52:52;16.00;94.80
55135;DHT22;41031;44.750;11.308;2023-05-19T03:55:26;16.00;94.80
55135;DHT22;41031;44.750;11.308;2023-05-19T03:57:56;16.00;94.80
55135;DHT22;41031;44.750;11.308;2023-05-19T04:00:23;16.00;94.80
55135;DHT22;41031;44.750;11.308;2023-05-19T04:02:50;16.00;94.80
55135;DHT22;41031;44.750;11.308;2023-05-19T04:05:18;16.00;94.90
55135;DHT22;41031;44.750;11.308;2023-05-19T04:07:47;16.00;94.90
55135;DHT22;41031;44.750;11.308;2023-05-19T04:10:19;16.00;94.90
55135;DHT22;41031;44.750;11.308;2023-05-19T04:12:46;16.00;94.80
55135;DHT22;41031;44.750;11.308;2023-05-19T04:15:16;16.00;94.80
55135;DHT22;41031;44.750;11.308;2023-05-19T04:17:45;16.00;94.90
55135;DHT22;41031;44.750;11.308;2023-05-19T04:20:12;16.00;94.90
55135;DHT22;41031;44.750;11.308;2023-05-19T04:22:39;16.10;94.90
55135;DHT22;41031;44.750;11.308;2023-05-19T04:25:07;16.00;95.00
55135;DHT22;41031;44.750;11.308;2023-05-19T04:27:40;16.10;95.00
55135;DHT22;41031;44.750;11.308;2023-05-19T04:30:11;16.10;95.10
55135;DHT22;41031;44.750;11.308;2023-05-19T04:32:41;16.10;95.00
55135;DHT22;41031;44.750;11.308;2023-05-19T04:35:12;16.10;94.90
55135;DHT22;41031;44.750;11.308;2023-05-19T04:37:41;16.10;94.90
55135;DHT22;41031;44.750;11.308;2023-05-19T04:40:13;16.10;94.90
55135;DHT22;41031;44.750;11.308;2023-05-19T04:42:40;16.20;94.90
55135;DHT22;41031;44.750;11.308;2023-05-19T04:45:09;16.20;95.00
55135;DHT22;41031;44.750;11.308;2023-05-19T04:47:40;16.20;95.00
55135;DHT22;41031;44.750;11.308;2023-05-19T04:50:08;16.20;95.10
55135;DHT22;41031;44.750;11.308;2023-05-19T04:52:39;16.20;95.10
55135;DHT22;41031;44.750;11.308;2023-05-19T04:55:09;16.30;95.20
55135;DHT22;41031;44.750;11.308;2023-05-19T04:57:40;16.30;95.30
55135;DHT22;41031;44.750;11.308;2023-05-19T05:00:08;16.30;95.30
55135;DHT22;41031;44.750;11.308;2023-05-19T05:02:50;16.30;95.30
55135;DHT22;41031;44.750;11.308;2023-05-19T05:05:20;16.30;95.30
55135;DHT22;41031;44.750;11.308;2023-05-19T05:07:47;16.30;95.30
55135;DHT22;41031;44.750;11.308;2023-05-19T05:10:18;16.40;95.40
55135;DHT22;41031;44.750;11.308;2023-05-19T05:12:45;16.40;95.50
55135;DHT22;41031;44.750;11.308;2023-05-19T05:15:13;16.40;95.50
55135;DHT22;41031;44.750;11.308;2023-05-19T05:17:40;16.40;95.50
55135;DHT22;41031;44.750;11.308;2023-05-19T05:20:10;16.40;95.50
55135;DHT22;41031;44.750;11.308;2023-05-19T05:22:38;16.40;95.50
55135;DHT22;41031;44.750;11.308;2023-05-19T05:25:08;16.50;95.60
55135;DHT22;41031;44.750;11.308;2023-05-19T05:27:39;16.50;95.60
55135;DHT22;41031;44.750;11.308;2023-05-19T05:30:07;16.50;95.60
55135;DHT22;41031;44.750;11.308;2023-05-19T05:32:37;16.50;95.60
55135;DHT22;41031;44.750;11.308;2023-05-19T05:35:15;16.50;95.60
55135;DHT22;41031;44.750;11.308;2023-05-19T05:37:48;16.60;95.60
55135;DHT22;41031;44.750;11.308;2023-05-19T05:40:15;16.60;95.70
55135;DHT22;41031;44.750;11.308;2023-05-19T05:42:42;16.60;95.70
55135;DHT22;41031;44.750;11.308;2023-05-19T05:45:10;16.60;95.60
55135;DHT22;41031;44.750;11.308;2023-05-19T05:47:38;16.60;95.60
55135;DHT22;41031;44.750;11.308;2023-05-19T05:50:08;16.60;95.60
55135;DHT22;41031;44.750;11.308;2023-05-19T05:52:36;16.70;95.60
55135;DHT22;41031;44.750;11.308;2023-05-19T05:55:05;16.70;95.60
55135;DHT22;41031;44.750;11.308;2023-05-19T05:57:34;16.70;95.60
55135;DHT22;41031;44.750;11.308;2023-05-19T06:00:06;16.80;95.50
55135;DHT22;41031;44.750;11.308;2023-05-19T06:02:45;16.80;95.40
55135;DHT22;41031;44.750;11.308;2023-05-19T06:05:14;16.80;95.50
55135;DHT22;41031;44.750;11.308;2023-05-19T06:07:42;16.80;95.40
55135;DHT22;41031;44.750;11.308;2023-05-19T06:10:11;16.80;95.40
55135;DHT22;41031;44.750;11.308;2023-05-19T06:12:38;16.90;95.40
55135;DHT22;41031;44.750;11.308;2023-05-19T06:15:07;16.90;95.40
55135;DHT22;41031;44.750;11.308;2023-05-19T06:17:54;16.90;95.30
55135;DHT22;41031;44.750;11.308;2023-05-19T06:20:22;16.90;95.30
55135;DHT22;41031;44.750;11.308;2023-05-19T06:22:49;16.90;95.30
55135;DHT22;41031;44.750;11.308;2023-05-19T06:25:19;16.90;95.30
55135;DHT22;41031;44.750;11.308;2023-05-19T06:27:48;17.00;95.30
55135;DHT22;41031;44.750;11.308;2023-05-19T06:30:15;17.00;95.30
55135;DHT22;41031;44.750;11.308;2023-05-19T06:32:52;17.00;95.20
55135;DHT22;41031;44.750;11.308;2023-05-19T06:35:19;17.00;95.20
55135;DHT22;41031;44.750;11.308;2023-05-19T06:37:47;17.10;95.10
55135;DHT22;41031;44.750;11.308;2023-05-19T06:40:14;17.10;95.00
55135;DHT22;41031;44.750;11.308;2023-05-19T06:42:42;17.10;95.30
55135;DHT22;41031;44.750;11.308;2023-05-19T06:45:18;17.10;95.00
55135;DHT22;41031;44.750;11.308;2023-05-19T06:47:50;17.20;94.90
55135;DHT22;41031;44.750;11.308;2023-05-19T06:50:17;17.20;94.80
55135;DHT22;41031;44.750;11.308;2023-05-19T06:52:49;17.20;94.60
55135;DHT22;41031;44.750;11.308;2023-05-19T06:55:19;17.20;94.60
55135;DHT22;41031;44.750;11.308;2023-05-19T06:57:48;17.20;94.60
55135;DHT22;41031;44.750;11.308;2023-05-19T07:00:16;17.20;94.70
55135;DHT22;41031;44.750;11.308;2023-05-19T07:02:49;17.20;94.70
55135;DHT22;41031;44.750;11.308;2023-05-19T07:05:17;17.20;94.60
55135;DHT22;41031;44.750;11.308;2023-05-19T07:07:49;17.20;94.60
55135;DHT22;41031;44.750;11.308;2023-05-19T07:10:22;17.20;94.60
55135;DHT22;41031;44.750;11.308;2023-05-19T07:12:50;17.30;94.70
55135;DHT22;41031;44.750;11.308;2023-05-19T07:15:25;17.30;94.80
55135;DHT22;41031;44.750;11.308;2023-05-19T07:17:52;17.30;94.80
55135;DHT22;41031;44.750;11.308;2023-05-19T07:20:20;17.40;95.00
55135;DHT22;41031;44.750;11.308;2023-05-19T07:22:49;17.40;95.00
55135;DHT22;41031;44.750;11.308;2023-05-19T07:25:16;17.30;95.00
55135;DHT22;41031;44.750;11.308;2023-05-19T07:27:45;17.40;95.00
55135;DHT22;41031;44.750;11.308;2023-05-19T07:30:15;17.40;95.00
55135;DHT22;41031;44.750;11.308;2023-05-19T07:32:42;17.40;95.00
55135;DHT22;41031;44.750;11.308;2023-05-19T07:35:09;17.40;95.00
55135;DHT22;41031;44.750;11.308;2023-05-19T07:37:39;17.40;95.00
55135;DHT22;41031;44.750;11.308;2023-05-19T07:40:06;17.40;95.00
55135;DHT22;41031;44.750;11.308;2023-05-19T07:42:36;17.50;95.10
55135;DHT22;41031;44.750;11.308;2023-05-19T07:45:03;17.50;95.10
55135;DHT22;41031;44.750;11.308;2023-05-19T07:47:31;17.50;95.10
55135;DHT22;41031;44.750;11.308;2023-05-19T07:49:58;17.40;95.10
55135;DHT22;41031;44.750;11.308;2023-05-19T07:52:25;17.40;95.20
55135;DHT22;41031;44.750;11.308;2023-05-19T07:54:52;17.40;95.20
55135;DHT22;41031;44.750;11.308;2023-05-19T07:57:19;17.40;95.30
55135;DHT22;41031;44.750;11.308;2023-05-19T07:59:48;17.40;95.30
55135;DHT22;41031;44.750;11.308;2023-05-19T08:02:15;17.30;95.60
55135;DHT22;41031;44.750;11.308;2023-05-19T08:04:42;17.40;95.40
55135;DHT22;41031;44.750;11.308;2023-05-19T08:07:10;17.30;95.50
55135;DHT22;41031;44.750;11.308;2023-05-19T08:09:38;17.40;95.60
55135;DHT22;41031;44.750;11.308;2023-05-19T08:12:05;17.40;95.70
55135;DHT22;41031;44.750;11.308;2023-05-19T08:14:32;17.50;95.80
55135;DHT22;41031;44.750;11.308;2023-05-19T08:17:03;17.60;95.80
55135;DHT22;41031;44.750;11.308;2023-05-19T08:19:30;17.70;95.80
55135;DHT22;41031;44.750;11.308;2023-05-19T08:21:57;17.70;95.80
55135;DHT22;41031;44.750;11.308;2023-05-19T08:24:29;17.80;95.70
55135;DHT22;41031;44.750;11.308;2023-05-19T08:26:58;17.80;95.60
55135;DHT22;41031;44.750;11.308;2023-05-19T08:29:25;17.80;95.70
55135;DHT22;41031;44.750;11.308;2023-05-19T08:31:52;17.90;95.50
55135;DHT22;41031;44.750;11.308;2023-05-19T08:34:24;17.90;95.40
55135;DHT22;41031;44.750;11.308;2023-05-19T08:36:51;18.00;95.30
55135;DHT22;41031;44.750;11.308;2023-05-19T08:39:19;18.00;95.20
55135;DHT22;41031;44.750;11.308;2023-05-19T08:41:52;18.10;95.10
55135;DHT22;41031;44.750;11.308;2023-05-19T08:44:19;18.10;94.80
55135;DHT22;41031;44.750;11.308;2023-05-19T08:46:46;18.10;94.40
55135;DHT22;41031;44.750;11.308;2023-05-19T08:49:16;18.00;94.30
55135;DHT22;41031;44.750;11.308;2023-05-19T08:51:56;18.00;94.20
55135;DHT22;41031;44.750;11.308;2023-05-19T08:54:31;17.90;94.20
55135;DHT22;41031;44.750;11.308;2023-05-19T08:57:03;17.90;94.20
55135;DHT22;41031;44.750;11.308;2023-05-19T08:59:31;17.80;94.10
55135;DHT22;41031;44.750;11.308;2023-05-19T09:02:00;17.70;93.90
55135;DHT22;41031;44.750;11.308;2023-05-19T09:04:28;17.70;93.90
55135;DHT22;41031;44.750;11.308;2023-05-19T09:06:56;17.60;93.80
55135;DHT22;41031;44.750;11.308;2023-05-19T09:09:24;17.60;93.90
55135;DHT22;41031;44.750;11.308;2023-05-19T09:11:51;17.60;94.10
55135;DHT22;41031;44.750;11.308;2023-05-19T09:14:18;17.60;94.30
55135;DHT22;41031;44.750;11.308;2023-05-19T09:16:45;17.50;94.30
55135;DHT22;41031;44.750;11.308;2023-05-19T09:19:19;17.50;94.30
55135;DHT22;41031;44.750;11.308;2023-05-19T09:21:57;17.50;94.40
55135;DHT22;41031;44.750;11.308;2023-05-19T09:24:28;17.50;94.50
55135;DHT22;41031;44.750;11.308;2023-05-19T09:26:58;17.40;94.50
55135;DHT22;41031;44.750;11.308;2023-05-19T09:29:26;17.40;94.50
55135;DHT22;41031;44.750;11.308;2023-05-19T09:31:54;17.40;94.70
55135;DHT22;41031;44.750;11.308;2023-05-19T09:34:26;17.40;94.90
55135;DHT22;41031;44.750;11.308;2023-05-19T09:36:53;17.40;95.10
55135;DHT22;41031;44.750;11.308;2023-05-19T09:39:22;17.40;95.20
55135;DHT22;41031;44.750;11.308;2023-05-19T09:41:52;17.40;95.40
55135;DHT22;41031;44.750;11.308;2023-05-19T09:44:25;17.40;95.50
55135;DHT22;41031;44.750;11.308;2023-05-19T09:46:56;17.40;95.50
55135;DHT22;41031;44.750;11.308;2023-05-19T09:49:28;17.50;95.50
55135;DHT22;41031;44.750;11.308;2023-05-19T09:51:56;17.50;95.50
55135;DHT22;41031;44.750;11.308;2023-05-19T09:54:25;17.50;95.50
55135;DHT22;41031;44.750;11.308;2023-05-19T09:57:02;17.50;95.20
55135;DHT22;41031;44.750;11.308;2023-05-19T09:59:30;17.50;95.20
55135;DHT22;41031;44.750;11.308;2023-05-19T10:02:00;17.50;95.30
55135;DHT22;41031;44.750;11.308;2023-05-19T10:04:29;17.50;95.50
55135;DHT22;41031;44.750;11.308;2023-05-19T10:06:57;17.60;95.60
55135;DHT22;41031;44.750;11.308;2023-05-19T10:09:27;17.70;95.50
55135;DHT22;41031;44.750;11.308;2023-05-19T10:11:58;17.70;95.40
55135;DHT22;41031;44.750;11.308;2023-05-19T10:14:27;17.70;95.40
55135;DHT22;41031;44.750;11.308;2023-05-19T10:16:58;17.70;95.20
55135;DHT22;41031;44.750;11.308;2023-05-19T10:19:27;17.70;95.10
55135;DHT22;41031;44.750;11.308;2023-05-19T10:21:55;17.60;94.80
55135;DHT22;41031;44.750;11.308;2023-05-19T10:24:25;17.50;95.00
55135;DHT22;41031;44.750;11.308;2023-05-19T10:27:07;17.50;94.90
55135;DHT22;41031;44.750;11.308;2023-05-19T10:29:41;17.40;95.20
55135;DHT22;41031;44.750;11.308;2023-05-19T10:32:16;17.30;95.30
55135;DHT22;41031;44.750;11.308;2023-05-19T10:37:40;17.30;95.30
55135;DHT22;41031;44.750;11.308;2023-05-19T10:40:29;17.30;95.50
55135;DHT22;41031;44.750;11.308;2023-05-19T10:44:00;17.30;95.50
55135;DHT22;41031;44.750;11.308;2023-05-19T10:46:03;17.30;95.40
55135;DHT22;41031;44.750;11.308;2023-05-19T10:48:33;17.30;95.50
55135;DHT22;41031;44.750;11.308;2023-05-19T10:51:03;17.30;95.50
55135;DHT22;41031;44.750;11.308;2023-05-19T10:53:32;17.20;95.40
55135;DHT22;41031;44.750;11.308;2023-05-19T10:56:01;17.20;95.40
55135;DHT22;41031;44.750;11.308;2023-05-19T10:58:39;17.20;95.50
55135;DHT22;41031;44.750;11.308;2023-05-19T11:01:16;17.20;95.50
55135;DHT22;41031;44.750;11.308;2023-05-19T11:03:53;17.30;95.60
55135;DHT22;41031;44.750;11.308;2023-05-19T11:06:32;17.20;95.60
55135;DHT22;41031;44.750;11.308;2023-05-19T11:11:46;17.20;95.90
55135;DHT22;41031;44.750;11.308;2023-05-19T11:14:30;17.30;96.10
55135;DHT22;41031;44.750;11.308;2023-05-19T11:17:01;17.30;96.10
55135;DHT22;41031;44.750;11.308;2023-05-19T11:19:33;17.30;96.20
55135;DHT22;41031;44.750;11.308;2023-05-19T11:22:12;17.30;96.30
55135;DHT22;41031;44.750;11.308;2023-05-19T11:27:32;17.40;96.40
55135;DHT22;41031;44.750;11.308;2023-05-19T11:30:08;17.40;96.40
55135;DHT22;41031;44.750;11.308;2023-05-19T11:32:42;17.50;96.20
55135;DHT22;41031;44.750;11.308;2023-05-19T11:35:10;17.50;96.10
55135;DHT22;41031;44.750;11.308;2023-05-19T11:37:42;17.40;96.10
55135;DHT22;41031;44.750;11.308;2023-05-19T11:40:09;17.40;96.00
55135;DHT22;41031;44.750;11.308;2023-05-19T11:42:40;17.40;96.00
55135;DHT22;41031;44.750;11.308;2023-05-19T11:45:10;17.40;96.10
55135;DHT22;41031;44.750;11.308;2023-05-19T11:47:37;17.30;96.20
55135;DHT22;41031;44.750;11.308;2023-05-19T11:50:24;17.30;96.40
55135;DHT22;41031;44.750;11.308;2023-05-19T11:52:52;17.40;96.50
55135;DHT22;41031;44.750;11.308;2023-05-19T11:55:20;17.30;96.50
55135;DHT22;41031;44.750;11.308;2023-05-19T11:58:00;17.30;96.60
55135;DHT22;41031;44.750;11.308;2023-05-19T12:00:36;17.40;96.70
55135;DHT22;41031;44.750;11.308;2023-05-19T12:03:05;17.40;96.80
55135;DHT22;41031;44.750;11.308;2023-05-19T12:05:37;17.40;96.80
55135;DHT22;41031;44.750;11.308;2023-05-19T12:08:10;17.40;96.80
55135;DHT22;41031;44.750;11.308;2023-05-19T12:10:38;17.50;96.80
55135;DHT22;41031;44.750;11.308;2023-05-19T12:13:06;17.50;96.70
55135;DHT22;41031;44.750;11.308;2023-05-19T12:15:36;17.50;96.70
55135;DHT22;41031;44.750;11.308;2023-05-19T12:18:03;17.60;96.60
55135;DHT22;41031;44.750;11.308;2023-05-19T12:20:31;17.60;96.70
55135;DHT22;41031;44.750;11.308;2023-05-19T12:23:01;17.70;96.70
55135;DHT22;41031;44.750;11.308;2023-05-19T12:25:30;17.70;96.70
55135;DHT22;41031;44.750;11.308;2023-05-19T12:28:01;17.70;96.80
55135;DHT22;41031;44.750;11.308;2023-05-19T12:30:30;17.70;96.90
55135;DHT22;41031;44.750;11.308;2023-05-19T12:33:00;17.70;97.00
55135;DHT22;41031;44.750;11.308;2023-05-19T12:35:36;17.70;97.00
55135;DHT22;41031;44.750;11.308;2023-05-19T12:38:06;17.70;97.10
55135;DHT22;41031;44.750;11.308;2023-05-19T12:40:34;17.70;97.00
55135;DHT22;41031;44.750;11.308;2023-05-19T12:43:05;17.70;97.00
55135;DHT22;41031;44.750;11.308;2023-05-19T12:45:36;17.70;97.00
55135;DHT22;41031;44.750;11.308;2023-05-19T12:48:10;17.70;97.10
55135;DHT22;41031;44.750;11.308;2023-05-19T12:50:38;17.70;97.10
55135;DHT22;41031;44.750;11.308;2023-05-19T12:53:07;17.70;97.20
55135;DHT22;41031;44.750;11.308;2023-05-19T12:55:43;17.80;97.20
55135;DHT22;41031;44.750;11.308;2023-05-19T12:58:11;17.70;97.20
55135;DHT22;41031;44.750;11.308;2023-05-19T13:00:42;17.70;97.20
55135;DHT22;41031;44.750;11.308;2023-05-19T13:03:18;17.70;97.20
55135;DHT22;41031;44.750;11.308;2023-05-19T13:05:48;17.70;97.00
55135;DHT22;41031;44.750;11.308;2023-05-19T13:08:19;17.70;97.00
55135;DHT22;41031;44.750;11.308;2023-05-19T13:10:47;17.60;97.00
55135;DHT22;41031;44.750;11.308;2023-05-19T13:13:17;17.60;97.20
55135;DHT22;41031;44.750;11.308;2023-05-19T13:15:45;17.60;97.30
55135;DHT22;41031;44.750;11.308;2023-05-19T13:18:14;17.50;97.40
55135;DHT22;41031;44.750;11.308;2023-05-19T13:20:43;17.60;97.50
55135;DHT22;41031;44.750;11.308;2023-05-19T13:23:11;17.50;97.50
55135;DHT22;41031;44.750;11.308;2023-05-19T13:25:39;17.50;97.60
55135;DHT22;41031;44.750;11.308;2023-05-19T13:28:07;17.60;97.60
55135;DHT22;41031;44.750;11.308;2023-05-19T13:30:37;17.50;97.60
55135;DHT22;41031;44.750;11.308;2023-05-19T13:33:07;17.50;97.70
55135;DHT22;41031;44.750;11.308;2023-05-19T13:35:38;17.60;97.70
55135;DHT22;41031;44.750;11.308;2023-05-19T13:38:08;17.60;97.70
55135;DHT22;41031;44.750;11.308;2023-05-19T13:40:36;17.60;97.70
55135;DHT22;41031;44.750;11.308;2023-05-19T13:43:04;17.70;97.70
55135;DHT22;41031;44.750;11.308;2023-05-19T13:45:31;17.70;97.70
55135;DHT22;41031;44.750;11.308;2023-05-19T13:47:59;17.70;97.70
55135;DHT22;41031;44.750;11.308;2023-05-19T13:50:26;17.70;97.70
55135;DHT22;41031;44.750;11.308;2023-05-19T13:52:55;17.70;97.80
55135;DHT22;41031;44.750;11.308;2023-05-19T13:55:25;17.70;97.70
55135;DHT22;41031;44.750;11.308;2023-05-19T13:57:53;17.70;97.70
55135;DHT22;41031;44.750;11.308;2023-05-19T14:00:20;17.70;97.70
55135;DHT22;41031;44.750;11.308;2023-05-19T14:02:49;17.60;97.60
55135;DHT22;41031;44.750;11.308;2023-05-19T14:05:16;17.70;97.70
55135;DHT22;41031;44.750;11.308;2023-05-19T14:07:43;17.70;97.70
55135;DHT22;41031;44.750;11.308;2023-05-19T14:10:10;17.70;97.60
55135;DHT22;41031;44.750;11.308;2023-05-19T14:12:37;17.70;97.60
55135;DHT22;41031;44.750;11.308;2023-05-19T14:15:27;17.80;97.70
55135;DHT22;41031;44.750;11.308;2023-05-19T14:17:54;17.80;97.70
55135;DHT22;41031;44.750;11.308;2023-05-19T14:20:23;17.90;97.70
55135;DHT22;41031;44.750;11.308;2023-05-19T14:22:52;17.90;97.60
55135;DHT22;41031;44.750;11.308;2023-05-19T14:25:23;18.00;97.40
55135;DHT22;41031;44.750;11.308;2023-05-19T14:27:50;18.00;97.40
55135;DHT22;41031;44.750;11.308;2023-05-19T14:30:20;18.10;97.30
55135;DHT22;41031;44.750;11.308;2023-05-19T14:32:47;18.20;97.20
55135;DHT22;41031;44.750;11.308;2023-05-19T14:35:14;18.20;97.00
55135;DHT22;41031;44.750;11.308;2023-05-19T14:37:43;18.20;96.90
55135;DHT22;41031;44.750;11.308;2023-05-19T14:40:20;18.20;96.50
55135;DHT22;41031;44.750;11.308;2023-05-19T14:42:50;18.20;96.10
55135;DHT22;41031;44.750;11.308;2023-05-19T14:45:17;18.00;95.90
55135;DHT22;41031;44.750;11.308;2023-05-19T14:47:46;18.00;95.80
55135;DHT22;41031;44.750;11.308;2023-05-19T14:50:13;17.90;95.80
55135;DHT22;41031;44.750;11.308;2023-05-19T14:52:40;17.80;95.70
55135;DHT22;41031;44.750;11.308;2023-05-19T14:55:08;17.80;95.80
55135;DHT22;41031;44.750;11.308;2023-05-19T14:57:39;17.70;96.10
55135;DHT22;41031;44.750;11.308;2023-05-19T15:00:09;17.70;95.80
55135;DHT22;41031;44.750;11.308;2023-05-19T15:02:36;17.60;96.00
55135;DHT22;41031;44.750;11.308;2023-05-19T15:05:03;17.60;96.00
55135;DHT22;41031;44.750;11.308;2023-05-19T15:07:30;17.60;96.00
55135;DHT22;41031;44.750;11.308;2023-05-19T15:10:05;17.50;96.10
55135;DHT22;41031;44.750;11.308;2023-05-19T15:12:35;17.50;96.20
55135;DHT22;41031;44.750;11.308;2023-05-19T15:15:02;17.50;96.30
55135;DHT22;41031;44.750;11.308;2023-05-19T15:17:32;17.40;96.30
55135;DHT22;41031;44.750;11.308;2023-05-19T15:19:58;17.40;96.30
55135;DHT22;41031;44.750;11.308;2023-05-19T15:22:26;17.40;96.40
55135;DHT22;41031;44.750;11.308;2023-05-19T15:24:53;17.40;96.40
55135;DHT22;41031;44.750;11.308;2023-05-19T15:27:20;17.40;96.40
55135;DHT22;41031;44.750;11.308;2023-05-19T15:29:47;17.40;96.30
55135;DHT22;41031;44.750;11.308;2023-05-19T15:32:15;17.30;96.20
55135;DHT22;41031;44.750;11.308;2023-05-19T15:34:42;17.30;95.80
55135;DHT22;41031;44.750;11.308;2023-05-19T15:37:11;17.30;95.70
55135;DHT22;41031;44.750;11.308;2023-05-19T15:39:38;17.30;95.60
55135;DHT22;41031;44.750;11.308;2023-05-19T15:42:05;17.30;95.50
55135;DHT22;41031;44.750;11.308;2023-05-19T15:44:32;17.20;95.50
55135;DHT22;41031;44.750;11.308;2023-05-19T15:46:59;17.20;95.50
55135;DHT22;41031;44.750;11.308;2023-05-19T15:49:29;17.20;95.50
55135;DHT22;41031;44.750;11.308;2023-05-19T15:51:59;17.20;95.40
55135;DHT22;41031;44.750;11.308;2023-05-19T15:54:26;17.20;95.20
55135;DHT22;41031;44.750;11.308;2023-05-19T15:56:53;17.20;95.30
55135;DHT22;41031;44.750;11.308;2023-05-19T15:59:19;17.30;95.40
55135;DHT22;41031;44.750;11.308;2023-05-19T16:01:47;17.30;95.30
55135;DHT22;41031;44.750;11.308;2023-05-19T16:04:16;17.30;95.50
55135;DHT22;41031;44.750;11.308;2023-05-19T16:06:46;17.40;95.50
55135;DHT22;41031;44.750;11.308;2023-05-19T16:09:12;17.30;95.50
55135;DHT22;41031;44.750;11.308;2023-05-19T16:11:39;17.30;95.50